Time;durP1;ratioP1;P1;durP2;ratioP2;P2;SDS_P1;SDS_P2;PMS_P1;PMS_P2;Temp;Humidity;BMP_temperature;BMP_pressure;BME280_temperature;BME280_humidity;BME280_pressure;Samples;Min_cycle;Max_cycle;Signal;HPM_P1;HPM_P2
2024/03/28 00:01:07;;;;;;;2.07;1.30;;;;;;;7.64;100.00;98607.50;5089758;28;20472;-39
2024/03/28 00:03:32;;;;;;;2.60;1.35;;;;;;;7.67;100.00;98597.03;5089963;28;20034;-39
2024/03/28 00:05:58;;;;;;;2.17;1.50;;;;;;;7.65;100.00;98601.06;5081181;28;20559;-39
2024/03/28 00:08:25;;;;;;;1.77;1.52;;;;;;;7.67;100.00;98599.72;5076163;28;20350;-39
2024/03/28 00:10:51;;;;;;;1.73;1.30;;;;;;;7.67;100.00;98599.72;5076085;28;20028;-39
2024/03/28 00:13:17;;;;;;;1.45;1.25;;;;;;;7.65;100.00;98585.72;5075596;28;20032;-39
2024/03/28 00:15:43;;;;;;;2.45;1.40;;;;;;;7.66;100.00;98591.91;5076823;28;20043;-39
2024/03/28 00:18:09;;;;;;;2.17;1.67;;;;;;;7.66;100.00;98586.53;5075968;28;20024;-39
2024/03/28 00:20:35;;;;;;;2.92;1.88;;;;;;;7.64;100.00;98577.94;5075688;28;20063;-39
2024/03/28 00:23:01;;;;;;;1.95;1.75;;;;;;;7.62;100.00;98574.72;5075599;28;20469;-39
2024/03/28 00:25:27;;;;;;;2.92;1.98;;;;;;;7.64;100.00;98573.34;5076136;28;20033;-39
2024/03/28 00:27:53;;;;;;;3.00;1.90;;;;;;;7.61;100.00;98570.38;5075659;28;20027;-39
2024/03/28 00:30:18;;;;;;;2.50;1.90;;;;;;;7.65;100.00;98568.78;5075774;28;20495;-38
2024/03/28 00:32:47;;;;;;;2.93;2.10;;;;;;;7.59;100.00;98561.78;5075676;28;20449;-38
2024/03/28 00:35:13;;;;;;;3.08;1.73;;;;;;;7.55;100.00;98547.25;5076138;28;20020;-39
2024/03/28 00:37:38;;;;;;;2.38;1.75;;;;;;;7.53;100.00;98535.97;5075536;28;20090;-39
2024/03/28 00:40:04;;;;;;;2.60;1.90;;;;;;;7.48;100.00;98532.19;5075814;28;20032;-38
2024/03/28 00:42:29;;;;;;;2.28;1.70;;;;;;;7.53;100.00;98542.16;5075150;28;20028;-39
2024/03/28 00:44:55;;;;;;;2.90;1.93;;;;;;;7.54;100.00;98546.44;5075656;28;20032;-38
2024/03/28 00:47:20;;;;;;;2.37;2.17;;;;;;;7.45;100.00;98527.31;5075362;28;20035;-39
2024/03/28 00:49:46;;;;;;;2.63;1.75;;;;;;;7.48;100.00;98529.50;5075870;28;20048;-39
2024/03/28 00:52:12;;;;;;;2.60;1.90;;;;;;;7.38;100.00;98515.25;5075485;28;20024;-39
2024/03/28 00:54:37;;;;;;;2.33;1.48;;;;;;;7.43;100.00;98524.13;5075589;28;20044;-39
2024/03/28 00:57:02;;;;;;;2.17;1.93;;;;;;;7.40;100.00;98523.81;5074904;28;20029;-39
2024/03/28 00:59:27;;;;;;;2.37;1.97;;;;;;;7.38;100.00;98523.31;5075043;28;20042;-39
2024/03/28 01:01:53;;;;;;;2.87;1.50;;;;;;;7.36;100.00;98518.16;5075044;28;20043;-39
2024/03/28 01:04:18;;;;;;;2.23;1.87;;;;;;;7.33;100.00;98513.34;5075029;28;20123;-39
2024/03/28 01:06:43;;;;;;;3.13;2.00;;;;;;;7.31;100.00;98507.41;5075264;28;20111;-39
2024/03/28 01:09:09;;;;;;;1.83;1.60;;;;;;;7.31;100.00;98503.91;5075176;28;20107;-39
2024/03/28 01:11:34;;;;;;;2.55;1.85;;;;;;;7.29;100.00;98496.13;5074847;28;20139;-38
2024/03/28 01:13:59;;;;;;;5.10;2.43;;;;;;;7.18;100.00;98484.56;5074562;28;20493;-39
2024/03/28 01:16:25;;;;;;;2.50;1.80;;;;;;;7.24;100.00;98493.44;5074245;28;20028;-39
2024/03/28 01:18:50;;;;;;;1.70;1.52;;;;;;;7.18;100.00;98492.63;5074449;28;20420;-40
2024/03/28 01:21:16;;;;;;;2.03;1.70;;;;;;;7.15;100.00;98485.06;5075477;28;20028;-39
2024/03/28 01:23:41;;;;;;;2.33;1.80;;;;;;;7.10;100.00;98479.69;5074479;28;20380;-39
2024/03/28 01:26:06;;;;;;;2.53;1.73;;;;;;;7.09;100.00;98475.41;5074913;28;20365;-39
2024/03/28 01:28:32;;;;;;;2.30;1.90;;;;;;;7.05;100.00;98478.88;5074919;28;20498;-39
2024/03/28 01:31:04;;;;;;;2.95;2.10;;;;;;;7.03;100.00;98470.25;5074846;28;20111;-40
2024/03/28 01:33:29;;;;;;;2.58;2.13;;;;;;;6.98;100.00;98479.16;5074432;28;20039;-39
2024/03/28 01:35:54;;;;;;;2.05;1.83;;;;;;;6.96;100.00;98476.69;5074129;28;20024;-39
2024/03/28 01:38:20;;;;;;;2.87;2.10;;;;;;;6.95;100.00;98483.16;5074441;28;20025;-39
2024/03/28 01:40:45;;;;;;;1.87;1.53;;;;;;;6.89;100.00;98476.16;5074690;28;20342;-39
2024/03/28 01:43:11;;;;;;;2.60;1.80;;;;;;;6.82;100.00;98475.59;5074287;28;20039;-39
2024/03/28 01:45:36;;;;;;;3.93;2.13;;;;;;;6.79;100.00;98475.31;5073914;28;20476;-39
2024/03/28 01:48:02;;;;;;;2.00;1.60;;;;;;;6.77;100.00;98475.56;5074469;28;20033;-39
2024/03/28 01:50:31;;;;;;;3.50;1.95;;;;;;;6.73;100.00;98463.72;5074358;28;20028;-39
2024/03/28 01:52:56;;;;;;;2.28;1.80;;;;;;;6.66;100.00;98455.94;5074742;28;20405;-39
2024/03/28 01:55:21;;;;;;;1.80;1.70;;;;;;;6.67;100.00;98454.03;5074532;28;20077;-39
2024/03/28 01:57:47;;;;;;;2.97;1.60;;;;;;;6.61;100.00;98453.22;5074038;28;20271;-38
2024/03/28 02:00:15;;;;;;;1.85;1.60;;;;;;;6.64;100.00;98466.13;5074238;28;20377;-38
2024/03/28 02:02:40;;;;;;;2.38;1.60;;;;;;;6.55;100.00;98454.28;5073521;28;20036;-38
2024/03/28 02:05:07;;;;;;;2.22;1.60;;;;;;;6.50;100.00;98448.09;5074419;28;20037;-38
2024/03/28 02:07:32;;;;;;;2.28;1.67;;;;;;;6.48;100.00;98456.38;5073679;28;20028;-38
2024/03/28 02:09:58;;;;;;;2.38;1.40;;;;;;;6.49;100.00;98449.13;5073696;28;20078;-40
2024/03/28 02:12:24;;;;;;;2.38;1.70;;;;;;;6.45;100.00;98443.50;5073671;28;20036;-39
2024/03/28 02:14:49;;;;;;;2.23;1.80;;;;;;;6.47;100.00;98449.41;5074008;28;20028;-39
2024/03/28 02:17:14;;;;;;;2.30;1.67;;;;;;;6.46;100.00;98447.81;5073275;28;20028;-39
2024/03/28 02:19:40;;;;;;;2.30;1.73;;;;;;;6.43;100.00;98443.75;5073604;28;20050;-39
2024/03/28 02:22:06;;;;;;;3.05;1.70;;;;;;;6.44;100.00;98442.72;5073153;28;20028;-38
2024/03/28 02:24:31;;;;;;;2.10;1.65;;;;;;;6.39;100.00;98444.53;5073717;28;20047;-39
2024/03/28 02:26:57;;;;;;;2.17;1.60;;;;;;;6.37;100.00;98447.50;5073449;28;20111;-38
2024/03/28 02:29:22;;;;;;;3.42;1.48;;;;;;;6.30;100.00;98440.75;5073329;28;20362;-39
2024/03/28 02:31:47;;;;;;;2.80;1.60;;;;;;;6.25;100.00;98428.13;5074069;28;20059;-39
2024/03/28 02:34:14;;;;;;;1.97;1.43;;;;;;;6.30;100.00;98444.25;5073402;28;20025;-39
2024/03/28 02:36:39;;;;;;;4.22;1.60;;;;;;;6.32;100.00;98439.41;5073416;28;20379;-39
2024/03/28 02:39:06;;;;;;;1.80;1.50;;;;;;;6.25;100.00;98436.19;5073416;28;20033;-39
2024/03/28 02:41:32;;;;;;;2.10;1.50;;;;;;;6.33;100.00;98441.03;5073295;28;20515;-39
2024/03/28 02:43:57;;;;;;;;;;;;;;;6.44;100.00;98441.88;5074348;28;20036;-39
2024/03/28 02:46:22;;;;;;;2.05;1.50;;;;;;;6.41;100.00;98432.47;5073317;28;20382;-39
2024/03/28 02:48:48;;;;;;;1.97;1.60;;;;;;;6.39;100.00;98423.91;5073848;28;20086;-37
2024/03/28 02:51:14;;;;;;;2.15;1.35;;;;;;;6.42;100.00;98422.53;5074037;28;20424;-38
2024/03/28 02:53:39;;;;;;;2.10;1.33;;;;;;;6.42;100.00;98417.19;5073290;28;20041;-39
2024/03/28 02:56:04;;;;;;;2.23;1.40;;;;;;;6.40;100.00;98404.03;5073158;28;20278;-40
2024/03/28 02:58:30;;;;;;;1.63;1.30;;;;;;;6.42;100.00;98406.44;5073433;28;20465;-40
2024/03/28 03:00:55;;;;;;;3.10;1.48;;;;;;;6.41;100.00;98402.16;5073472;28;20471;-40
2024/03/28 03:03:21;;;;;;;2.08;1.30;;;;;;;6.42;100.00;98399.19;5073913;28;20444;-38
2024/03/28 03:05:49;;;;;;;2.00;1.27;;;;;;;6.39;100.00;98378.25;5072844;28;20112;-38
2024/03/28 03:08:14;;;;;;;1.52;1.20;;;;;;;6.34;100.00;98370.16;5072833;28;20453;-39
2024/03/28 03:10:40;;;;;;;1.77;1.10;;;;;;;6.34;100.00;98372.03;5073452;28;20039;-39
2024/03/28 03:13:05;;;;;;;2.08;1.60;;;;;;;6.36;100.00;98376.09;5072783;28;20067;-39
2024/03/28 03:15:30;;;;;;;1.43;1.30;;;;;;;6.34;100.00;98362.09;5072728;28;20033;-39
2024/03/28 03:17:56;;;;;;;2.03;1.40;;;;;;;6.34;100.00;98366.66;5072999;28;20025;-40
2024/03/28 03:20:22;;;;;;;2.97;1.95;;;;;;;6.33;100.00;98365.06;5073526;28;20036;-39
2024/03/28 03:22:48;;;;;;;3.35;1.58;;;;;;;6.37;100.00;98366.16;5073260;28;20376;-39
2024/03/28 03:25:28;;;;;;;4.72;1.63;;;;;;;6.37;100.00;98353.53;5072265;28;20376;-39
2024/03/28 03:36:05;;;;;;;2.88;1.40;;;;;;;6.32;100.00;98294.47;5073117;28;20067;-39
2024/03/28 03:38:31;;;;;;;1.73;1.55;;;;;;;6.41;100.00;98289.41;5072889;28;20457;-38
2024/03/28 03:40:59;;;;;;;2.03;1.70;;;;;;;6.39;100.00;98289.69;5074123;28;20059;-38
2024/03/28 03:43:24;;;;;;;3.83;1.60;;;;;;;6.40;100.00;98311.94;5076505;28;20488;-39
2024/03/28 03:45:50;;;;;;;2.75;1.50;;;;;;;6.46;100.00;98310.88;5076307;28;20024;-39
2024/03/28 03:48:15;;;;;;;1.98;1.40;;;;;;;6.43;100.00;98312.22;5076773;28;20107;-39
2024/03/28 03:50:41;;;;;;;2.63;1.87;;;;;;;6.46;100.00;98313.56;5076192;28;20032;-39
2024/03/28 03:53:06;;;;;;;2.00;1.50;;;;;;;6.48;100.00;98318.66;5075914;28;20119;-39
2024/03/28 03:55:32;;;;;;;2.93;1.60;;;;;;;6.47;100.00;98319.75;5076260;28;20028;-39
2024/03/28 03:57:57;;;;;;;2.00;1.60;;;;;;;6.49;100.00;98314.91;5075998;28;20028;-39
2024/03/28 04:00:22;;;;;;;2.73;1.80;;;;;;;6.46;100.00;98310.88;5076564;28;20025;-38
2024/03/28 04:02:48;;;;;;;3.73;1.97;;;;;;;6.43;100.00;98306.84;5076241;28;20055;-39
2024/03/28 04:05:13;;;;;;;2.30;1.43;;;;;;;6.40;100.00;98299.34;5076713;28;20473;-39
2024/03/28 04:07:39;;;;;;;1.47;1.37;;;;;;;6.31;100.00;98298.25;5076092;28;20423;-38
2024/03/28 04:10:05;;;;;;;2.78;1.95;;;;;;;6.33;100.00;98309.50;5076870;28;20052;-39
2024/03/28 04:12:30;;;;;;;2.85;1.98;;;;;;;6.20;100.00;98291.25;5075981;28;20033;-39
2024/03/28 04:14:55;;;;;;;2.07;1.80;;;;;;;6.28;100.00;98301.44;5076267;28;20028;-39
2024/03/28 04:17:21;;;;;;;2.03;1.40;;;;;;;6.29;100.00;98303.03;5076191;28;20036;-39
2024/03/28 04:19:46;;;;;;;2.47;1.50;;;;;;;6.25;100.00;98304.66;5076217;28;20032;-39
2024/03/28 04:22:11;;;;;;;2.37;1.40;;;;;;;6.24;100.00;98292.28;5075872;28;20025;-39
2024/03/28 04:24:37;;;;;;;2.57;1.70;;;;;;;6.22;100.00;98280.22;5075587;28;20472;-39
2024/03/28 04:27:03;;;;;;;2.25;1.55;;;;;;;6.10;100.00;98264.34;5075488;28;20028;-39
2024/03/28 04:29:28;;;;;;;2.70;1.60;;;;;;;6.16;100.00;98277.53;5076084;28;20024;-39
2024/03/28 04:31:54;;;;;;;3.53;1.60;;;;;;;6.16;100.00;98271.38;5075772;28;20028;-40
2024/03/28 04:34:19;;;;;;;2.63;1.50;;;;;;;6.14;100.00;98265.44;5076193;28;20056;-39
2024/03/28 04:36:44;;;;;;;1.80;1.50;;;;;;;6.07;100.00;98254.97;5076009;28;20173;-39
2024/03/28 04:39:13;;;;;;;3.47;1.67;;;;;;;6.06;100.00;98253.38;5075735;28;20025;-39
2024/03/28 04:41:38;;;;;;;2.95;1.88;;;;;;;6.06;100.00;98252.56;5075110;28;20476;-39
2024/03/28 04:44:03;;;;;;;3.10;1.50;;;;;;;6.09;100.00;98260.88;5075422;28;20025;-40
2024/03/28 04:46:29;;;;;;;2.08;1.60;;;;;;;6.14;100.00;98265.44;5076057;28;20435;-39
2024/03/28 04:48:54;;;;;;;2.47;1.73;;;;;;;6.08;100.00;98271.88;5075817;28;20028;-39
2024/03/28 04:51:19;;;;;;;2.53;1.67;;;;;;;6.02;100.00;98252.28;5075181;28;20025;-39
2024/03/28 04:53:45;;;;;;;3.47;1.60;;;;;;;6.05;100.00;98253.63;5075579;28;20048;-39
2024/03/28 04:56:10;;;;;;;2.57;1.63;;;;;;;6.07;100.00;98248.81;5075278;28;20028;-39
2024/03/28 04:58:35;;;;;;;1.97;1.43;;;;;;;6.07;100.00;98254.97;5075253;28;20083;-40
2024/03/28 05:01:01;;;;;;;2.60;1.80;;;;;;;5.99;100.00;98239.38;5075391;28;20032;-47
2024/03/28 05:03:26;;;;;;;3.37;1.77;;;;;;;6.05;100.00;98250.94;5075399;28;20025;-40
2024/03/28 05:05:51;;;;;;;2.77;1.70;;;;;;;6.00;100.00;98248.22;5075040;28;20062;-39
2024/03/28 05:08:17;;;;;;;4.45;1.80;;;;;;;6.06;100.00;98257.94;5075786;28;20066;-38
2024/03/28 05:10:42;;;;;;;2.33;1.60;;;;;;;6.07;100.00;98259.53;5075244;28;20108;-38
2024/03/28 05:13:08;;;;;;;3.27;1.57;;;;;;;6.02;100.00;98251.47;5074659;28;20058;-39
2024/03/28 05:15:33;;;;;;;3.25;1.80;;;;;;;6.03;100.00;98253.09;5074799;28;20330;-39
2024/03/28 05:17:58;;;;;;;2.60;2.00;;;;;;;5.94;100.00;98245.53;5075375;28;20073;-39
2024/03/28 05:20:24;;;;;;;3.83;2.40;;;;;;;5.89;100.00;98234.75;5074831;28;20066;-38
2024/03/28 05:22:49;;;;;;;2.10;1.90;;;;;;;5.97;100.00;98246.09;5074383;28;20074;-39
2024/03/28 05:25:14;;;;;;;4.47;2.17;;;;;;;5.93;100.00;98241.25;5074591;28;20028;-39
2024/03/28 05:27:40;;;;;;;3.03;2.17;;;;;;;5.87;100.00;98238.78;5074565;28;20115;-39
2024/03/28 05:30:06;;;;;;;2.80;2.00;;;;;;;5.94;100.00;98268.88;5074306;28;20028;-40
2024/03/28 05:32:31;;;;;;;3.53;1.85;;;;;;;5.93;100.00;98276.13;5074768;28;20136;-39
2024/03/28 05:34:57;;;;;;;3.27;2.03;;;;;;;5.90;100.00;98278.47;5074723;28;20067;-40
2024/03/28 05:37:22;;;;;;;3.20;2.00;;;;;;;5.89;100.00;98280.34;5074320;28;20279;-39
2024/03/28 05:39:48;;;;;;;4.35;2.20;;;;;;;5.83;100.00;98276.06;5075187;28;20025;-39
2024/03/28 05:42:13;;;;;;;4.43;2.40;;;;;;;5.73;100.00;98264.50;5074382;28;20372;-39
2024/03/28 05:44:38;;;;;;;3.33;1.90;;;;;;;5.79;100.00;98280.31;5074310;28;20043;-39
2024/03/28 05:47:04;;;;;;;2.33;2.07;;;;;;;5.76;100.00;98270.13;5074489;28;20063;-39
2024/03/28 05:49:29;;;;;;;2.40;2.20;;;;;;;5.80;100.00;98281.94;5074242;28;20024;-39
2024/03/28 05:51:55;;;;;;;2.80;2.13;;;;;;;5.83;100.00;98285.97;5073823;28;20085;-39
2024/03/28 05:54:22;;;;;;;2.73;2.23;;;;;;;5.83;100.00;98278.75;5074481;28;20071;-38
2024/03/28 05:56:47;;;;;;;3.58;2.50;;;;;;;5.90;100.00;98276.63;5074159;28;20028;-38
2024/03/28 05:59:13;;;;;;;6.95;2.55;;;;;;;6.02;100.00;98286.34;5073713;28;20063;-38
2024/03/28 06:01:38;;;;;;;5.43;2.20;;;;;;;6.09;100.00;98286.91;5073952;28;20024;-39
2024/03/28 06:04:03;;;;;;;2.23;1.73;;;;;;;6.18;100.00;98282.63;5073490;28;20024;-38
2024/03/28 06:06:29;;;;;;;2.87;2.10;;;;;;;6.28;100.00;98277.28;5073878;28;20028;-39
2024/03/28 06:08:54;;;;;;;2.70;2.20;;;;;;;6.37;100.00;98275.69;5073775;28;20038;-39
2024/03/28 06:11:20;;;;;;;3.07;2.47;;;;;;;6.54;100.00;98280.84;5073821;28;20032;-39
2024/03/28 06:13:45;;;;;;;3.00;2.15;;;;;;;6.64;100.00;98282.72;5073428;28;20283;-39
2024/03/28 06:16:10;;;;;;;3.00;2.03;;;;;;;6.73;100.00;98278.41;5073906;28;20072;-39
2024/03/28 06:18:36;;;;;;;2.50;1.97;;;;;;;6.76;100.00;98267.13;5073963;28;20070;-39
2024/03/28 06:21:03;;;;;;;3.30;2.23;;;;;;;6.72;100.00;98271.44;5073678;28;20032;-39
2024/03/28 06:23:29;;;;;;;2.30;2.00;;;;;;;6.69;100.00;98269.28;5073728;28;20115;-39
2024/03/28 06:25:54;;;;;;;2.28;2.00;;;;;;;6.71;100.00;98261.75;5074428;28;20064;-39
2024/03/28 06:28:20;;;;;;;2.20;2.00;;;;;;;6.72;100.00;98260.69;5074469;28;20472;-39
2024/03/28 06:30:48;;;;;;;2.95;2.10;;;;;;;6.66;100.00;98257.19;5073788;28;20258;-39
2024/03/28 06:33:15;;;;;;;3.00;2.10;;;;;;;6.70;100.00;98257.47;5073891;28;20051;-39
2024/03/28 06:35:40;;;;;;;;;;;;;;;6.79;100.00;98258.56;5073732;28;20029;-39
2024/03/28 06:38:05;;;;;;;4.67;2.10;;;;;;;6.73;100.00;98251.53;5073393;28;20023;-39
2024/03/28 06:40:30;;;;;;;4.13;1.87;;;;;;;6.72;100.00;98247.25;5073961;28;20279;-38
2024/03/28 06:42:56;;;;;;;3.47;2.23;;;;;;;6.73;100.00;98248.88;5073150;28;20024;-38
2024/03/28 06:45:22;;;;;;;2.30;1.90;;;;;;;6.76;100.00;98251.03;5073728;28;20043;-39
2024/03/28 06:47:47;;;;;;;;;;;;;;;6.85;100.00;98260.16;5073539;28;20529;-39
2024/03/28 06:50:12;;;;;;;3.07;2.00;;;;;;;6.82;100.00;98255.31;5073606;28;20003;-39
2024/03/28 06:52:38;;;;;;;1.83;1.60;;;;;;;6.88;100.00;98258.78;5073329;28;20274;-39
2024/03/28 06:55:03;;;;;;;1.90;1.43;;;;;;;6.88;100.00;98256.94;5073762;28;20041;-38
2024/03/28 06:57:29;;;;;;;1.80;1.50;;;;;;;6.88;100.00;98262.31;5073297;28;20043;-38
2024/03/28 06:59:54;;;;;;;1.90;1.60;;;;;;;6.88;100.00;98251.56;5073310;28;20533;-39
2024/03/28 07:02:20;;;;;;;2.50;1.80;;;;;;;6.89;100.00;98245.13;5073270;28;20524;-40
2024/03/28 07:04:45;;;;;;;3.42;1.65;;;;;;;7.00;100.00;98255.84;5073268;28;20162;-40
2024/03/28 07:07:12;;;;;;;1.92;1.58;;;;;;;7.03;100.00;98261.50;5073737;28;20085;-40
2024/03/28 07:09:37;;;;;;;2.43;1.70;;;;;;;7.06;100.00;98268.19;5073283;28;20447;-38
2024/03/28 07:12:04;;;;;;;2.33;1.77;;;;;;;7.08;100.00;98264.19;5072871;28;20266;-40
2024/03/28 07:14:30;;;;;;;2.35;1.73;;;;;;;7.08;100.00;98269.56;5073318;28;20066;-39
2024/03/28 07:16:55;;;;;;;4.33;2.07;;;;;;;7.11;100.00;98278.94;5076393;28;20407;-39
2024/03/28 07:19:20;;;;;;;2.60;1.60;;;;;;;7.13;100.00;98282.19;5077248;28;20433;-40
2024/03/28 07:21:45;;;;;;;4.93;2.47;;;;;;;7.10;100.00;98277.34;5077276;28;20480;-40
2024/03/28 07:24:11;;;;;;;2.27;1.77;;;;;;;7.13;100.00;98277.59;5077130;28;20067;-38
2024/03/28 07:26:37;;;;;;;3.33;1.87;;;;;;;7.14;100.00;98281.09;5076690;28;20052;-39
2024/03/28 07:29:03;;;;;;;1.77;1.35;;;;;;;7.04;100.00;98273.84;5076872;28;20059;-39
2024/03/28 07:31:30;;;;;;;3.35;1.63;;;;;;;7.14;100.00;98287.28;5077145;28;20052;-39
2024/03/28 07:33:56;;;;;;;2.78;1.60;;;;;;;7.16;100.00;98297.75;5076393;28;20534;-39
2024/03/28 07:36:21;;;;;;;2.90;1.77;;;;;;;7.15;100.00;98294.25;5076798;28;20052;-38
2024/03/28 07:38:47;;;;;;;1.90;1.50;;;;;;;7.16;100.00;98303.91;5077075;28;20377;-39
2024/03/28 07:41:12;;;;;;;;;;;;;;;7.23;100.00;98298.28;5077748;28;20029;-38
2024/03/28 07:43:38;;;;;;;2.95;1.50;;;;;;;7.10;100.00;98307.69;5077283;28;19915;-39
2024/03/28 07:46:04;;;;;;;3.33;1.60;;;;;;;7.10;100.00;98304.19;5076665;28;20020;-39
2024/03/28 07:48:30;;;;;;;3.13;1.63;;;;;;;7.11;100.00;98312.00;5077400;28;20024;-39
2024/03/28 07:50:59;;;;;;;3.00;1.45;;;;;;;7.07;100.00;98305.53;5076525;28;20035;-39
2024/03/28 07:53:27;;;;;;;2.22;1.70;;;;;;;6.92;100.00;98289.44;5076020;28;20088;-39
2024/03/28 07:55:52;;;;;;;2.92;1.30;;;;;;;7.01;100.00;98309.31;5076716;28;20067;-39
2024/03/28 07:58:17;;;;;;;4.87;1.70;;;;;;;6.93;100.00;98297.25;5076998;28;20064;-39
2024/03/28 08:00:42;;;;;;;1.70;1.50;;;;;;;6.92;100.00;98298.28;5076476;28;20024;-39
2024/03/28 08:03:08;;;;;;;5.03;1.53;;;;;;;6.90;100.00;98296.97;5076081;28;20032;-38
2024/03/28 08:05:35;;;;;;;2.50;1.50;;;;;;;6.92;100.00;98303.66;5076980;28;20076;-38
2024/03/28 08:08:01;;;;;;;1.70;1.33;;;;;;;6.92;100.00;98303.66;5076135;28;20025;-38
2024/03/28 08:10:30;;;;;;;;;;;;;;;7.03;100.00;98307.19;5076623;28;20086;-38
2024/03/28 08:12:56;;;;;;;1.88;1.50;;;;;;;6.88;100.00;98297.25;5076048;28;19909;-38
2024/03/28 08:15:21;;;;;;;3.00;1.30;;;;;;;6.95;100.00;98313.88;5076475;28;20032;-38
2024/03/28 08:17:47;;;;;;;1.88;1.15;;;;;;;6.94;100.00;98312.28;5076046;28;20021;-38
2024/03/28 08:20:15;;;;;;;3.03;1.60;;;;;;;6.86;100.00;98299.38;5076523;28;20115;-39
2024/03/28 08:22:43;;;;;;;1.80;1.27;;;;;;;6.84;100.00;98295.34;5075969;28;20063;-40
2024/03/28 08:25:10;;;;;;;4.15;1.83;;;;;;;6.86;100.00;98312.00;5076681;28;20033;-38
2024/03/28 08:27:36;;;;;;;2.13;1.20;;;;;;;6.84;100.00;98317.66;5075311;28;20476;-38
2024/03/28 08:30:01;;;;;;;;;;;;;;;6.95;100.00;98321.13;5076210;28;20028;-38
2024/03/28 08:32:27;;;;;;;1.77;1.15;;;;;;;6.80;100.00;98308.50;5075799;28;19908;-38
2024/03/28 08:34:52;;;;;;;1.45;0.95;;;;;;;6.84;100.00;98303.41;5075851;28;20032;-39
2024/03/28 08:37:19;;;;;;;2.45;1.80;;;;;;;6.80;100.00;98296.97;5075899;28;20032;-39
2024/03/28 08:39:44;;;;;;;3.70;1.33;;;;;;;6.88;100.00;98310.66;5075629;28;20037;-39
2024/03/28 08:42:10;;;;;;;1.85;1.20;;;;;;;6.89;100.00;98304.22;5075767;28;20027;-39
2024/03/28 08:44:37;;;;;;;1.35;1.10;;;;;;;6.91;100.00;98314.69;5075527;28;20475;-38
2024/03/28 08:47:03;;;;;;;1.42;1.20;;;;;;;6.89;100.00;98309.59;5075447;28;20103;-38
2024/03/28 08:49:28;;;;;;;1.52;0.90;;;;;;;6.99;100.00;98316.03;5076076;28;20428;-38
2024/03/28 08:51:53;;;;;;;2.20;1.23;;;;;;;7.00;100.00;98321.13;5075454;28;20067;-39
2024/03/28 08:54:22;;;;;;;1.10;0.93;;;;;;;6.99;100.00;98316.84;5075604;28;20044;-39
2024/03/28 08:56:47;;;;;;;1.52;1.05;;;;;;;7.01;100.00;98330.81;5074937;28;20025;-39
2024/03/28 08:59:13;;;;;;;1.77;0.93;;;;;;;7.04;100.00;98337.53;5075622;28;20055;-39
2024/03/28 09:01:40;;;;;;;1.65;1.25;;;;;;;7.00;100.00;98334.56;5075136;28;20033;-39
2024/03/28 09:04:07;;;;;;;3.53;1.00;;;;;;;7.07;100.00;98339.66;5075462;28;20040;-39
2024/03/28 09:06:32;;;;;;;2.03;1.00;;;;;;;7.07;100.00;98340.47;5075073;28;20108;-39
2024/03/28 09:08:58;;;;;;;1.63;1.10;;;;;;;7.06;100.00;98352.31;5075231;28;20460;-39
2024/03/28 09:11:26;;;;;;;1.40;1.00;;;;;;;7.06;100.00;98352.31;5075023;28;20028;-38
2024/03/28 09:13:52;;;;;;;2.30;1.13;;;;;;;7.06;100.00;98352.31;5075170;28;20032;-39
2024/03/28 09:16:17;;;;;;;1.57;0.97;;;;;;;7.03;100.00;98346.66;5075493;28;20380;-39
2024/03/28 09:18:42;;;;;;;2.27;1.03;;;;;;;7.11;100.00;98360.38;5074952;28;20250;-39
2024/03/28 09:21:11;;;;;;;1.30;1.10;;;;;;;7.14;100.00;98361.72;5074539;28;20123;-39
2024/03/28 09:23:37;;;;;;;1.60;1.30;;;;;;;7.13;100.00;98373.56;5074754;28;20067;-39
2024/03/28 09:26:02;;;;;;;1.63;1.00;;;;;;;7.18;100.00;98371.66;5074703;28;20088;-38
2024/03/28 09:28:28;;;;;;;2.55;1.10;;;;;;;7.15;100.00;98363.31;5074737;28;20024;-39
2024/03/28 09:30:54;;;;;;;1.33;1.10;;;;;;;7.22;100.00;98383.50;5075417;28;20086;-39
2024/03/28 09:33:19;;;;;;;1.60;1.40;;;;;;;7.28;100.00;98387.00;5075095;28;20037;-38
2024/03/28 09:35:46;;;;;;;1.55;1.20;;;;;;;7.25;100.00;98386.72;5074511;28;20329;-38
2024/03/28 09:38:12;;;;;;;2.03;1.10;;;;;;;7.21;100.00;98392.63;5073567;28;20032;-38
2024/03/28 09:40:50;;;;;;;1.73;1.10;;;;;;;7.20;100.00;98391.00;5074392;28;20024;-38
2024/03/28 09:43:15;;;;;;;1.13;0.93;;;;;;;7.26;100.00;98401.75;5074028;28;20376;-39
2024/03/28 09:45:41;;;;;;;2.58;1.15;;;;;;;7.19;100.00;98402.03;5074288;28;20043;-39
2024/03/28 09:48:07;;;;;;;1.30;0.80;;;;;;;7.17;100.00;98406.84;5074200;28;20020;-40
2024/03/28 09:50:35;;;;;;;;;;;;;;;7.21;100.00;98430.25;5075214;28;20059;-39
2024/03/28 09:53:00;;;;;;;0.70;0.60;;;;;;;7.07;100.00;98422.97;5074115;28;20375;-39
2024/03/28 09:55:26;;;;;;;0.77;0.70;;;;;;;7.12;100.00;98436.41;5074481;28;20048;-39
2024/03/28 09:57:52;;;;;;;1.13;0.80;;;;;;;7.12;100.00;98437.22;5074319;28;20070;-39
2024/03/28 10:00:18;;;;;;;1.45;0.70;;;;;;;7.06;100.00;98432.91;5074601;28;20028;-38
2024/03/28 10:02:53;;;;;;;0.45;0.45;;;;;;;7.13;100.00;98436.16;5074491;28;20483;-39
2024/03/28 10:05:19;;;;;;;1.30;0.60;;;;;;;7.04;100.00;98440.44;5073906;28;20024;-39
2024/03/28 10:07:47;;;;;;;1.23;0.65;;;;;;;7.07;100.00;98461.41;5073524;28;20059;-39
2024/03/28 10:10:14;;;;;;;3.40;0.73;;;;;;;7.12;100.00;98471.34;5074341;28;20024;-39
2024/03/28 10:12:50;;;;;;;0.88;0.50;;;;;;;7.12;100.00;98476.72;5074097;28;20036;-39
2024/03/28 10:15:15;;;;;;;1.60;0.60;;;;;;;7.06;100.00;98475.13;5074286;28;20021;-38
2024/03/28 10:17:41;;;;;;;1.03;0.53;;;;;;;7.12;100.00;98480.22;5073760;28;20393;-38
2024/03/28 10:20:07;;;;;;;1.00;0.60;;;;;;;7.05;100.00;98473.50;5074013;28;20255;-38
2024/03/28 10:22:41;;;;;;;1.27;0.73;;;;;;;7.13;100.00;98494.50;5073605;28;20028;-38
2024/03/28 10:25:25;;;;;;;2.17;1.13;;;;;;;7.16;100.00;98499.31;5073601;28;20033;-39
2024/03/28 10:27:57;;;;;;;1.90;0.88;;;;;;;7.25;100.00;98505.00;5073280;28;20112;-38
2024/03/28 10:30:26;;;;;;;1.90;0.70;;;;;;;7.26;100.00;98499.34;5074039;28;20121;-38
2024/03/28 10:33:04;;;;;;;1.33;0.80;;;;;;;7.38;100.00;98521.41;5073469;28;20039;-38
2024/03/28 10:35:31;;;;;;;2.08;1.33;;;;;;;7.40;100.00;98519.25;5074056;28;20024;-39
2024/03/28 10:38:04;;;;;;;2.10;0.75;;;;;;;7.55;100.00;98528.41;5073394;28;20031;-38
2024/03/28 10:40:29;;;;;;;3.67;0.80;;;;;;;7.63;100.00;98527.91;5073796;28;20028;-42
2024/03/28 10:43:01;;;;;;;3.33;1.08;;;;;;;7.71;100.00;98532.72;5073038;28;20032;-39
2024/03/28 10:45:31;;;;;;;2.03;1.02;;;;;;;7.79;100.00;98536.78;5074003;28;20476;-39
2024/03/28 10:47:58;;;;;;;2.80;1.10;;;;;;;7.95;100.00;98533.00;5073037;28;20025;-39
2024/03/28 10:50:32;;;;;;;1.83;1.08;;;;;;;7.99;100.00;98542.16;5073438;28;20471;-39
2024/03/28 10:53:06;;;;;;;3.17;1.27;;;;;;;8.00;100.00;98533.00;5073166;28;20036;-39
2024/03/28 10:55:37;;;;;;;2.92;1.30;;;;;;;8.10;100.00;98559.09;5072835;28;20093;-39
2024/03/28 10:58:07;;;;;;;2.92;1.23;;;;;;;8.20;100.00;98564.50;5073193;28;20024;-38
2024/03/28 11:00:33;;;;;;;2.58;1.05;;;;;;;8.36;100.00;98571.50;5074051;28;20036;-38
2024/03/28 11:02:59;;;;;;;1.92;1.10;;;;;;;8.52;100.00;98577.66;5073183;28;20024;-38
2024/03/28 11:05:29;;;;;;;4.15;2.05;;;;;;;8.78;100.00;98578.41;5073256;28;20108;-39
2024/03/28 11:07:55;;;;;;;4.95;1.48;;;;;;;9.07;100.00;98575.06;5073751;28;20060;-39
2024/03/28 11:10:20;;;;;;;3.97;1.25;;;;;;;9.30;100.00;98582.53;5073478;28;20111;-39
2024/03/28 11:12:45;;;;;;;2.87;1.70;;;;;;;9.33;100.00;98575.78;5072729;28;20031;-39
2024/03/28 11:15:19;;;;;;;2.93;1.50;;;;;;;9.37;100.00;98574.94;5073105;28;20066;-38
2024/03/28 11:17:45;;;;;;;2.65;1.13;;;;;;;9.58;100.00;98588.31;5073910;28;20262;-38
2024/03/28 11:20:15;;;;;;;;;;;;;;;9.75;100.00;98581.44;5073881;28;20028;-39
2024/03/28 11:22:40;;;;;;;5.38;1.48;;;;;;;9.67;100.00;98592.84;5073200;28;20375;-39
2024/03/28 11:25:32;;;;;;;2.92;1.15;;;;;;;9.64;100.00;98584.50;5073731;28;20036;-39
2024/03/28 11:28:10;;;;;;;1.88;1.00;;;;;;;9.71;100.00;98598.47;5073018;28;20029;-38
2024/03/28 11:30:38;;;;;;;3.83;0.90;;;;;;;9.67;100.00;98602.81;5072684;28;20027;-39
2024/03/28 11:33:10;;;;;;;3.05;0.80;;;;;;;9.97;100.00;98596.41;5072953;28;20082;-39
2024/03/28 11:35:38;;;;;;;3.03;1.10;;;;;;;10.34;100.00;98603.16;5073508;28;20039;-40
2024/03/28 11:38:05;;;;;;;2.70;0.70;;;;;;;10.63;100.00;98603.16;5072928;28;20032;-39